CheckWX is a tool to help pilots better visualize weather data.  It is not intended as a substitute for an official pre-flight weather briefing.

17:31:37 UTC

EDDS METAR
Stuttgart Airport
Stuttgart, Germany
Current

12 mins ago

EDDS 241720Z 32010KT CAVOK 12/05 Q1022 NOSIG
Observed
Mar-24 @ 17:20 UTC
Wind
  • 320° at 10 KTS
Visibility
10,000+ meters
Flight Rules
VFR
Cloud Levels
  • Clear skies
Temperature
12°C / 54°F
Dewpoint
C / 41°F
Humidity
63%
Altimeter
30.18" Hg
Pressure
1021.92 hPa
Previous

42 mins ago

EDDS 241650Z 32015KT CAVOK 12/05 Q1022 NOSIG
Observed
Mar-24 @ 16:50 UTC
Wind
  • 320° at 15 KTS
Visibility
10,000+ meters
Flight Rules
VFR
Cloud Levels
  • Clear skies
Temperature
12°C / 54°F
Dewpoint
C / 41°F
Humidity
63%
Altimeter
30.18" Hg
Pressure
1021.92 hPa
Previous

1 hour ago

EDDS 241620Z 33013KT CAVOK 13/05 Q1022 NOSIG
Observed
Mar-24 @ 16:20 UTC
Wind
  • 330° at 13 KTS
Visibility
10,000+ meters
Flight Rules
VFR
Cloud Levels
  • Clear skies
Temperature
13°C / 55°F
Dewpoint
C / 41°F
Humidity
59%
Altimeter
30.18" Hg
Pressure
1021.92 hPa